In Rescue
 
Open Full Screen Window  High Contrast Mode
Wind Gusting 22 knots
12
February 25, 2021 4:13 PM CST
Weather Information
Wind Direction
  270 °
Wind Speed
  12 kt (14 mph)
Wind Gust
  22 kt (25 mph)
Altimeter
30.01 in
Visibility
10 SM
Temperature
01° C
34° F
Dewpoint
-09° C
16° F
Humidity
48%
1hr Rain Fall
00.00 in.
24hr Rain Fall
00.00 in.
Sky Condition
Clear
VFR

METAR KELO 252213Z AUTO 27012G22KT 10SM CLR 01/M09 A3001 RMK AO2

FAA Disclaimer: The data displayed is for advisory purposes only and is not to be used for flight planning or operations.